Map

Track Data

SID SEASON NUMBER BASIN SUBBASIN NAME ISO_TIME NATURE LAT LON WMO_WIND WMO_PRES WMO_AGENCY TRACK_TYPE DIST2LAND LANDFALL IFLAG USA_AGENCY USA_ATCF_ID USA_LAT USA_LON USA_RECORD USA_STATUS USA_WIND USA_PRES USA_SSHS USA_R34_NE USA_R34_SE USA_R34_SW USA_R34_NW USA_R50_NE USA_R50_SE USA_R50_SW USA_R50_NW USA_R64_NE USA_R64_SE USA_R64_SW USA_R64_NW USA_POCI USA_ROCI USA_RMW USA_EYE TOKYO_LAT TOKYO_LON TOKYO_GRADE TOKYO_WIND TOKYO_PRES TOKYO_R50_DIR TOKYO_R50_LONG TOKYO_R50_SHORT TOKYO_R30_DIR TOKYO_R30_LONG TOKYO_R30_SHORT TOKYO_LAND CMA_LAT CMA_LON CMA_CAT CMA_WIND CMA_PRES HKO_LAT HKO_LON HKO_CAT HKO_WIND HKO_PRES NEWDELHI_LAT NEWDELHI_LON NEWDELHI_GRADE NEWDELHI_WIND NEWDELHI_PRES NEWDELHI_CI NEWDELHI_DP NEWDELHI_POCI REUNION_LAT REUNION_LON REUNION_TYPE REUNION_WIND REUNION_PRES REUNION_TNUM REUNION_CI REUNION_RMW REUNION_R34_NE REUNION_R34_SE REUNION_R34_SW REUNION_R34_NW REUNION_R50_NE REUNION_R50_SE REUNION_R50_SW REUNION_R50_NW REUNION_R64_NE REUNION_R64_SE REUNION_R64_SW REUNION_R64_NW BOM_LAT BOM_LON BOM_TYPE BOM_WIND BOM_PRES BOM_TNUM BOM_CI BOM_RMW BOM_R34_NE BOM_R34_SE BOM_R34_SW BOM_R34_NW BOM_R50_NE BOM_R50_SE BOM_R50_SW BOM_R50_NW BOM_R64_NE BOM_R64_SE BOM_R64_SW BOM_R64_NW BOM_ROCI BOM_POCI BOM_EYE BOM_POS_METHOD BOM_PRES_METHOD NADI_LAT NADI_LON NADI_CAT NADI_WIND NADI_PRES WELLINGTON_LAT WELLINGTON_LON WELLINGTON_WIND WELLINGTON_PRES DS824_LAT DS824_LON DS824_STAGE DS824_WIND DS824_PRES TD9636_LAT TD9636_LON TD9636_STAGE TD9636_WIND TD9636_PRES TD9635_LAT TD9635_LON TD9635_WIND TD9635_PRES TD9635_ROCI NEUMANN_LAT NEUMANN_LON NEUMANN_CLASS NEUMANN_WIND NEUMANN_PRES MLC_LAT MLC_LON MLC_CLASS MLC_WIND MLC_PRES USA_GUST BOM_GUST BOM_GUST_PER REUNION_GUST REUNION_GUST_PER USA_SEAHGT USA_SEARAD_NE USA_SEARAD_SE USA_SEARAD_SW USA_SEARAD_NW STORM_SPEED STORM_DIR
1968347N05091 1968 124 NI BB NOT_NAMED 1968-12-11 18:00:00 TS 4.60000 91.1000 main 461 461 O________O____ jtwc_io IO131968 4.60000 91.1000 -1 4.60000 91.1000 TC 1 296
1968347N05091 1968 124 NI BB NOT_NAMED 1968-12-11 21:00:00 TS 4.61750 91.0675 main 461 461 P________P____ IO131968 4.61750 91.0675 -1 4.61750 91.0675 TC 1 317
1968347N05091 1968 124 NI BB NOT_NAMED 1968-12-12 00:00:00 TS 4.70000 91.0000 main 470 469 O________O____ jtwc_io IO131968 4.70000 91.0000 -1 4.70000 91.0000 TC 25 3 326
1968347N05091 1968 124 NI BB NOT_NAMED 1968-12-12 03:00:00 TS 4.89778 90.8755 main 478 478 P________PO___ IO131968 4.89750 90.8725 -1 4.89750 90.8725 TC 25 4.90000 90.9000 1 6 330
1968347N05091 1968 124 NI BB NOT_NAMED 1968-12-12 06:00:00 TS 5.22377 90.6920 main 498 498 O________OP___ jtwc_io IO131968 5.20000 90.7000 -1 5.20000 90.7000 TC 25 5.31885 90.6598 1 8 332
1968347N05091 1968 124 NI BB NOT_NAMED 1968-12-12 09:00:00 TS 5.63550 90.4825 main 520 520 P________PP___ IO131968 5.60751 90.5001 -1 5.60751 90.5001 TC 25 5.71015 90.4355 1 9 333
1968347N05091 1968 124 NI BB NOT_NAMED 1968-12-12 12:00:00 TS 6.01545 90.2812 main 544 544 O________OP___ jtwc_io IO131968 6.00000 90.3000 -1 6.00000 90.3000 TC 25 6.04635 90.2434 1 7 330
1968347N05091 1968 124 NI BB NOT_NAMED 1968-12-12 15:00:00 TS 6.26333 90.1183 main 570 570 P________PO___ IO131968 6.24499 90.1275 -1 6.24499 90.1275 TC 25 6.30000 90.1000 1 5 326
1968347N05091 1968 124 NI BB NOT_NAMED 1968-12-12 18:00:00 TS 6.41903 90.0044 main 582 582 O________OP___ jtwc_io IO131968 6.40000 90.0000 -1 6.40000 90.0000 TC 25 6.45709 90.0132 1 3 327
1968347N05091 1968 124 NI BB NOT_NAMED 1968-12-12 21:00:00 TS 6.51411 89.9523 main 584 584 P________PP___ IO131968 6.49248 89.9500 -1 6.49248 89.9500 TC 25 6.55737 89.9571 1 2 333
1968347N05091 1968 124 NI BB NOT_NAMED 1968-12-13 00:00:00 TS 6.61799 89.8992 main 597 597 O________OP___ jtwc_io IO131968 6.60000 89.9000 -1 6.60000 89.9000 TC 25 6.65397 89.8975 1 3 331
1968347N05091 1968 124 NI BB NOT_NAMED 1968-12-13 03:00:00 TS 6.80833 89.7866 main 612 612 P________PO___ IO131968 6.81249 89.7800 -1 6.81249 89.7800 TC 25 6.80000 89.8000 1 6 329
1968347N05091 1968 124 NI BB NOT_NAMED 1968-12-13 06:00:00 TS 7.09053 89.6088 main 641 641 O________OP___ jtwc_io IO131968 7.10000 89.6000 -1 7.10000 89.6000 TC 25 7.07158 89.6263 1 7 327
1968347N05091 1968 124 NI BB NOT_NAMED 1968-12-13 09:00:00 TS 7.42752 89.3800 main 672 672 P________PP___ IO131968 7.44251 89.3650 -1 7.44251 89.3650 TC 25 7.39753 89.4101 1 8 325
1968347N05091 1968 124 NI BB NOT_NAMED 1968-12-13 12:00:00 TS 7.78323 89.1213 main 717 717 O________OP___ jtwc_io IO131968 7.80000 89.1000 -1 7.80000 89.1000 TC 25 7.74970 89.1638 1 9 323
1968347N05091 1968 124 NI BB NOT_NAMED 1968-12-13 15:00:00 TS 8.10499 88.8666 main 750 750 P________PO___ IO131968 8.10748 88.8500 -1 8.10748 88.8500 TC 25 8.10000 88.9000 1 8 321
1968347N05091 1968 124 NI BB NOT_NAMED 1968-12-13 18:00:00 TS 8.40506 88.6198 main 754 735 O________OP___ jtwc_io IO131968 8.40000 88.6000 -1 8.40000 88.6000 TC 25 8.41518 88.6595 1 8 321
1968347N05091 1968 124 NI BB NOT_NAMED 1968-12-13 21:00:00 TS 8.70739 88.3774 main 737 711 P________PP___ IO131968 8.69995 88.3649 -1 8.69995 88.3649 TC 30 8.72228 88.4023 1 8 320
1968347N05091 1968 124 NI BB NOT_NAMED 1968-12-14 00:00:00 TS 9.00608 88.1063 main 711 687 O________OP___ jtwc_io IO131968 9.00000 88.1000 -1 9.00000 88.1000 TC 35 9.01825 88.1189 1 8 315
1968347N05091 1968 124 NI BB NOT_NAMED 1968-12-14 03:00:00 TS 9.30499 87.7817 main 687 655 P________PO___ IO131968 9.30748 87.7725 -1 9.30748 87.7725 TC 35 9.30000 87.8000 2 9 310
1968347N05091 1968 124 NI BB NOT_NAMED 1968-12-14 06:00:00 TS 9.59359 87.4066 main 655 622 O________OP___ jtwc_io IO131968 9.60000 87.4000 -1 9.60000 87.4000 TC 35 9.58078 87.4198 2 10 306
1968347N05091 1968 124 NI BB NOT_NAMED 1968-12-14 09:00:00 TS 9.85841 87.0025 main 627 597 P________PP___ IO131968 9.86500 87.0000 -1 9.86500 87.0000 TC 35 9.84523 87.0077 2 9 302
1968347N05091 1968 124 NI BB NOT_NAMED 1968-12-14 12:00:00 TS 10.0957 86.5972 main 597 567 O________OP___ jtwc_io IO131968 10.1000 86.6000 -1 10.1000 86.6000 TC 35 10.0870 86.5917 2 9 300
1968347N05091 1968 124 NI BB NOT_NAMED 1968-12-14 15:00:00 TS 10.3100 86.2233 main 567 547 P________PO___ IO131968 10.3150 86.2350 -1 10.3150 86.2350 TC 35 10.3000 86.2000 3 8 300
1968347N05091 1968 124 NI BB NOT_NAMED 1968-12-14 18:00:00 TS 10.4955 85.8917 main 547 522 O________OP___ jtwc_io IO131968 10.5000 85.9000 -1 10.5000 85.9000 TC 35 10.4866 85.8751 3 7 299
1968347N05091 1968 124 NI BB NOT_NAMED 1968-12-14 21:00:00 TS 10.6582 85.5874 main 528 505 P________PP___ IO131968 10.6649 85.5925 -1 10.6649 85.5925 TC 35 10.6446 85.5772 3 7 297
1968347N05091 1968 124 NI BB NOT_NAMED 1968-12-15 00:00:00 TS 10.7935 85.2969 main 505 484 O________OP___ jtwc_io IO131968 10.8000 85.3000 -1 10.8000 85.3000 TC 35 10.7804 85.2907 3 6 293
1968347N05091 1968 124 NI BB NOT_NAMED 1968-12-15 03:00:00 TS 10.9050 85.0050 main 484 462 P________PO___ IO131968 10.9074 85.0074 -1 10.9074 85.0074 TC 35 10.9000 85.0000 3 6 290
1968347N05091 1968 124 NI BB NOT_NAMED 1968-12-15 06:00:00 TS 11.0102 84.6887 main 462 441 O________OP___ jtwc_io IO131968 11.0000 84.7000 -1 11.0000 84.7000 TC 35 11.0307 84.6660 3 7 288
1968347N05091 1968 124 NI BB NOT_NAMED 1968-12-15 09:00:00 TS 11.1150 84.3375 main 433 409 P________PP___ IO131968 11.1000 84.3425 -1 11.1000 84.3425 TC 35 11.1451 84.3276 3 7 287
1968347N05091 1968 124 NI BB NOT_NAMED 1968-12-15 12:00:00 TS 11.2123 84.0001 main 409 388 O________OP___ jtwc_io IO131968 11.2000 84.0000 -1 11.2000 84.0000 TC 35 11.2369 84.0004 3 6 288
1968347N05091 1968 124 NI BB NOT_NAMED 1968-12-15 15:00:00 TS 11.3100 83.7233 main 388 377 P________PO___ IO131968 11.3149 83.7350 -1 11.3149 83.7350 TC 35 11.3000 83.7000 3 5 288
1968347N05091 1968 124 NI BB NOT_NAMED 1968-12-15 18:00:00 TS 11.3816 83.4834 main 377 359 O________OP___ jtwc_io IO131968 11.4000 83.5000 -1 11.4000 83.5000 TC 35 11.3448 83.4503 3 5 281
1968347N05091 1968 124 NI BB NOT_NAMED 1968-12-15 21:00:00 TS 11.4066 83.2375 main 349 328 P________PP___ IO131968 11.4300 83.2425 -1 11.4300 83.2425 TC 35 11.3597 83.2275 3 5 270
1968347N05091 1968 124 NI BB NOT_NAMED 1968-12-16 00:00:00 TS 11.3816 83.0053 main 328 313 O________OP___ jtwc_io IO131968 11.4000 83.0000 -1 11.4000 83.0000 TC 35 11.3448 83.0160 3 4 257
1968347N05091 1968 124 NI BB NOT_NAMED 1968-12-16 03:00:00 TS 11.3100 82.8000 main 313 290 P________PO___ IO131968 11.3150 82.8000 -1 11.3150 82.8000 TC 35 11.3000 82.8000 3 4 247
1968347N05091 1968 124 NI BB NOT_NAMED 1968-12-16 06:00:00 TS 11.2109 82.5857 main 290 267 O________OP___ jtwc_io IO131968 11.2000 82.6000 -1 11.2000 82.6000 TC 35 11.2328 82.5571 3 5 246
1968347N05091 1968 124 NI BB NOT_NAMED 1968-12-16 09:00:00 TS 11.1125 82.3408 main 260 237 P________PP___ IO131968 11.1000 82.3575 -1 11.1000 82.3575 TC 35 11.1375 82.3074 3 5 248
1968347N05091 1968 124 NI BB NOT_NAMED 1968-12-16 12:00:00 TS 11.0078 82.0847 main 237 207 O________OP___ jtwc_io IO131968 11.0000 82.1000 -1 11.0000 82.1000 TC 35 11.0234 82.0540 3 5 247
1968347N05091 1968 124 NI BB NOT_NAMED 1968-12-16 15:00:00 TS 10.9050 81.8334 main 207 185 P________PO___ IO131968 10.9075 81.8500 -1 10.9075 81.8500 TC 35 10.9000 81.8000 3 5 247
1968347N05091 1968 124 NI BB NOT_NAMED 1968-12-16 18:00:00 TS 10.8021 81.5861 main 185 164 O________OP___ jtwc_io IO131968 10.8000 81.6000 -1 10.8000 81.6000 TC 35 10.8064 81.5583 3 5 244
1968347N05091 1968 124 NI BB NOT_NAMED 1968-12-16 21:00:00 TS 10.6724 81.3434 main 153 125 P________PP___ IO131968 10.6575 81.3575 -1 10.6575 81.3575 TC 30 10.7023 81.3153 3 6 240
1968347N05091 1968 124 NI BB NOT_NAMED 1968-12-17 00:00:00 TS 10.5240 81.0882 main 125 95 O________OP___ jtwc_io IO131968 10.5000 81.1000 -1 10.5000 81.1000 TC 25 10.5721 81.0646 3 6 241
1968347N05091 1968 124 NI BB NOT_NAMED 1968-12-17 03:00:00 TS 10.3817 80.8051 main 95 60 P________PO___ IO131968 10.3725 80.8076 -1 10.3725 80.8076 TC 25 10.4000 80.8000 1 7 240
1968347N05091 1968 124 NI BB NOT_NAMED 1968-12-17 06:00:00 TS 10.1902 80.5069 main 60 22 O________OP___ jtwc_io IO131968 10.2000 80.5000 -1 10.2000 80.5000 TC 25 10.1755 80.5171 1 8 232
1968347N05091 1968 124 NI BB NOT_NAMED 1968-12-17 09:00:00 TS 9.92051 80.2068 main 22 10 P________PP___ IO131968 9.93004 80.1973 -1 9.93004 80.1973 TC 25 9.90779 80.2194 1 8 225
1968347N05091 1968 124 NI BB NOT_NAMED 1968-12-17 12:00:00 TS 9.60559 79.9060 main 24 24 O________OP___ jtwc_io IO131968 9.60000 79.9000 -1 9.60000 79.9000 TC 25 9.61119 79.9119 1 9 224
1968347N05091 1968 124 NI BB NOT_NAMED 1968-12-17 15:00:00 NR 9.30000 79.6000 main 54 __________O___ IO131968 -1 TC 9.30000 79.6000 1 9 225

About IBTrACS Database

This database is a web-friendly format of International Best Track Archive for Climate Stewardship (IBTrACS), a global best track data archive curated by NOAA dating back to 1842.

Updated: 2021-10-08